createdAt,value
2017-06-24T10:39:07.458Z,2655
2017-06-24T10:40:22.928Z,1995
2017-06-24T10:41:38.511Z,1965
2017-06-24T10:42:53.979Z,1820
2017-06-24T10:44:09.684Z,3450
2017-06-24T10:45:23.796Z,5125
2017-06-24T10:46:37.939Z,5045
2017-06-24T10:47:53.347Z,5265
2017-06-24T10:49:07.692Z,2960
2017-06-24T10:50:22.769Z,1480
2017-06-24T10:51:38.475Z,5000
2017-06-24T10:52:54.008Z,5035
2017-06-24T10:54:09.750Z,4905
2017-06-24T10:55:25.207Z,4360
2017-06-24T10:56:40.868Z,1535
2017-06-24T10:57:56.545Z,1110
2017-06-24T10:59:12.273Z,1210
2017-06-24T11:00:27.717Z,1150
2017-06-24T11:01:43.217Z,835
2017-06-24T11:02:58.668Z,670
2017-06-24T11:04:14.322Z,710
2017-06-24T11:05:29.803Z,3330
2017-06-24T11:06:45.236Z,1095
2017-06-24T11:08:00.626Z,665
2017-06-24T11:09:16.367Z,5290
2017-06-24T11:10:31.786Z,5590
2017-06-24T11:11:47.217Z,5095
2017-06-24T11:13:02.684Z,4385
2017-06-24T11:14:19.633Z,5540
2017-06-24T11:15:36.056Z,5400
2017-06-24T11:16:52.530Z,5345
2017-06-24T11:18:09.336Z,5170
2017-06-24T11:19:25.012Z,4890
2017-06-24T11:20:40.458Z,4860
2017-06-24T11:21:56.129Z,4860
2017-06-24T11:23:11.529Z,4785
2017-06-24T11:24:27.261Z,4955
2017-06-24T11:25:42.704Z,4845
2017-06-24T11:26:58.193Z,3015
2017-06-24T11:28:13.818Z,2110
2017-06-24T11:29:28.459Z,2675
2017-06-24T11:30:45.389Z,2450
2017-06-24T11:32:01.426Z,4690
2017-06-24T11:33:17.486Z,3640
2017-06-24T11:34:34.971Z,6630
2017-06-24T11:35:51.787Z,2100
2017-06-24T11:37:07.365Z,2865
2017-06-24T11:38:22.806Z,4955
2017-06-24T11:39:38.502Z,6075
2017-06-24T11:40:54.050Z,5435
2017-06-24T11:42:09.542Z,5185
2017-06-24T11:43:24.983Z,4990
2017-06-24T11:44:40.846Z,4665
2017-06-24T11:45:56.325Z,4780
2017-06-24T11:47:11.755Z,5165
2017-06-24T11:48:26.862Z,5620
2017-06-24T11:49:42.597Z,3600
2017-06-24T11:50:58.353Z,6115
2017-06-24T11:52:13.836Z,1530
2017-06-24T11:53:29.331Z,1460
2017-06-24T11:54:45.419Z,2310
2017-06-24T11:56:00.911Z,1620
2017-06-24T11:57:16.382Z,2160
2017-06-24T11:58:30.188Z,2830
2017-06-24T11:59:45.828Z,2365
2017-06-24T12:01:01.391Z,5585
2017-06-24T12:02:17.091Z,5145
2017-06-24T12:03:32.499Z,2825
2017-06-24T12:04:48.246Z,4985
2017-06-24T12:06:17.496Z,2730
2017-06-24T12:07:33.169Z,1745
2017-06-24T12:08:48.639Z,1500
2017-06-24T12:10:04.356Z,1980
2017-06-24T12:11:19.890Z,1590
2017-06-24T12:12:35.388Z,1740
2017-06-24T12:13:50.622Z,1985
2017-06-24T12:15:06.321Z,1470
2017-06-24T12:16:21.792Z,1385
2017-06-24T12:17:37.253Z,1285
2017-06-24T12:18:52.331Z,1220
2017-06-24T12:20:08.026Z,1265
2017-06-24T12:21:23.498Z,1225
2017-06-24T12:22:38.997Z,1200
2017-06-24T12:23:54.659Z,1085
2017-06-24T12:25:10.346Z,940
2017-06-24T12:26:25.842Z,920
2017-06-24T12:27:41.255Z,940
2017-06-24T12:28:56.742Z,975
2017-06-24T12:30:12.444Z,1330
2017-06-24T12:31:27.537Z,1380
2017-06-24T12:32:43.021Z,1255
2017-06-24T12:33:58.514Z,1370
2017-06-24T12:35:14.219Z,2955
2017-06-24T12:36:29.648Z,1750
2017-06-24T12:37:44.752Z,1725
2017-06-24T12:39:00.286Z,2040
2017-06-24T12:40:16.073Z,1820
2017-06-24T12:41:30.216Z,2020
2017-06-24T12:42:45.678Z,1315
2017-06-24T12:43:59.852Z,1125
2017-06-24T12:45:15.343Z,1170
2017-06-24T12:46:30.882Z,1300
2017-06-24T12:47:46.308Z,1405
2017-06-24T12:49:01.824Z,1385
2017-06-24T12:50:17.533Z,1350
2017-06-24T12:51:32.947Z,1450
2017-06-24T12:52:48.403Z,1355
2017-06-24T12:54:03.866Z,1540
2017-06-24T12:55:19.554Z,1445
2017-06-24T12:56:33.554Z,1225
2017-06-24T12:57:47.703Z,1385
2017-06-24T12:59:03.303Z,1365
2017-06-24T13:00:18.983Z,1725
2017-06-24T13:01:34.358Z,2430
2017-06-24T13:02:49.887Z,2515
2017-06-24T13:04:03.701Z,1730
2017-06-24T13:05:19.440Z,1445
2017-06-24T13:06:34.906Z,1455
2017-06-24T13:07:50.373Z,1540
2017-06-24T13:09:05.806Z,1725
2017-06-24T13:10:21.543Z,1820
2017-06-24T13:11:37.207Z,1625
2017-06-24T13:13:06.160Z,1635
2017-06-24T13:14:21.802Z,1880
2017-06-24T13:15:36.229Z,2005
2017-06-24T13:16:51.800Z,2620
2017-06-24T13:18:07.241Z,1855
2017-06-24T13:19:21.432Z,4120
2017-06-24T13:20:37.065Z,3715
2017-06-24T13:21:52.520Z,1500
2017-06-24T13:23:07.976Z,1770
2017-06-24T13:24:23.649Z,3365
2017-06-24T13:25:39.457Z,4695
2017-06-24T13:26:54.871Z,2270
2017-06-24T13:28:10.341Z,5395
2017-06-24T13:29:24.499Z,1245
2017-06-24T13:30:40.207Z,1285
2017-06-24T13:31:55.653Z,1715
2017-06-24T13:33:09.774Z,1115
2017-06-24T13:34:25.266Z,955
2017-06-24T13:35:40.980Z,945
2017-06-24T13:36:56.455Z,950
2017-06-24T13:38:11.856Z,895
2017-06-24T13:39:27.494Z,840
2017-06-24T13:40:43.174Z,765
2017-06-24T13:41:57.169Z,710
2017-06-24T13:43:12.613Z,705
2017-06-24T13:44:28.076Z,720
2017-06-24T13:45:43.787Z,715
2017-06-24T13:46:59.254Z,730
2017-06-24T13:48:14.823Z,745
2017-06-24T13:49:30.309Z,750
2017-06-24T13:50:44.877Z,725
2017-06-24T13:52:00.338Z,765
2017-06-24T13:53:15.841Z,800
2017-06-24T13:54:43.654Z,900
2017-06-24T13:55:59.369Z,1000
2017-06-24T13:57:14.860Z,1050
2017-06-24T13:58:30.537Z,1065
2017-06-24T13:59:46.001Z,1050
2017-06-24T14:01:01.700Z,995
2017-06-24T14:02:15.819Z,1005
2017-06-24T14:03:31.477Z,1060
2017-06-24T14:04:46.927Z,1105
2017-06-24T14:06:02.864Z,1035
2017-06-24T14:07:18.299Z,860
2017-06-24T14:08:33.790Z,825
2017-06-24T14:09:49.237Z,865
2017-06-24T14:11:35.646Z,805
2017-06-24T14:12:51.119Z,715
2017-06-24T14:14:06.817Z,745
2017-06-24T14:15:22.302Z,860
2017-06-24T14:16:38.017Z,800
2017-06-24T14:17:53.478Z,765
2017-06-24T14:19:08.543Z,665
2017-06-24T14:20:24.216Z,570
2017-06-24T14:21:39.908Z,565
2017-06-24T14:22:52.914Z,600
2017-06-24T14:24:08.361Z,675
2017-06-24T14:25:23.883Z,675
2017-06-24T14:26:39.741Z,715
2017-06-24T14:27:55.193Z,815
2017-06-24T14:29:10.839Z,795
2017-06-24T14:30:26.341Z,770
2017-06-24T14:31:41.688Z,760
2017-06-24T14:32:57.218Z,765
2017-06-24T14:34:12.618Z,775
2017-06-24T14:35:28.119Z,780
2017-06-24T14:36:43.872Z,840
2017-06-24T14:37:59.363Z,1130
2017-06-24T14:39:13.385Z,1510
2017-06-24T14:40:28.869Z,1425
2017-06-24T14:41:44.588Z,1270
2017-06-24T14:43:00.052Z,1135
2017-06-24T14:44:14.206Z,910
2017-06-24T14:45:29.618Z,735
2017-06-24T14:46:45.371Z,635
2017-06-24T14:48:00.846Z,585
2017-06-24T14:49:15.027Z,595
2017-06-24T14:50:30.465Z,615
2017-06-24T14:51:46.188Z,685
2017-06-24T14:53:01.767Z,685
2017-06-24T14:54:17.232Z,660
2017-06-24T14:55:31.259Z,615
2017-06-24T14:56:47.099Z,630
2017-06-24T14:58:03.086Z,595
2017-06-24T14:59:18.580Z,595
2017-06-24T15:00:32.668Z,595
2017-06-24T15:01:48.334Z,570
2017-06-24T15:04:32.996Z,515
2017-06-24T15:05:48.434Z,570
2017-06-24T15:07:04.098Z,605
2017-06-24T15:08:19.171Z,565
2017-06-24T15:09:34.660Z,490
2017-06-24T15:10:48.822Z,440
2017-06-24T15:12:04.760Z,405
2017-06-24T15:13:20.397Z,355
2017-06-24T15:14:35.849Z,330
2017-06-24T15:15:51.441Z,340
2017-06-24T15:17:07.094Z,345
2017-06-24T15:18:21.115Z,350
2017-06-24T15:19:36.801Z,350
2017-06-24T15:20:50.782Z,365
2017-06-24T15:22:05.172Z,400
2017-06-24T15:23:22.150Z,505
2017-06-24T15:24:39.118Z,715
2017-06-24T15:25:55.755Z,810
2017-06-24T15:27:13.328Z,825
2017-06-24T15:28:30.236Z,755
2017-06-24T15:29:46.998Z,705
2017-06-24T15:31:03.434Z,730
2017-06-24T15:32:20.377Z,780
2017-06-24T15:33:36.829Z,715
2017-06-24T15:34:53.543Z,725
2017-06-24T15:36:09.631Z,735
2017-06-24T15:37:26.641Z,685
2017-06-24T15:38:43.298Z,690
2017-06-24T15:40:00.422Z,735
2017-06-24T15:41:15.957Z,735
2017-06-24T15:42:32.895Z,800
2017-06-24T15:43:49.373Z,735
2017-06-24T15:45:06.327Z,680
2017-06-24T15:46:23.108Z,665
2017-06-24T15:47:40.118Z,660
2017-06-24T15:48:55.934Z,595
2017-06-24T15:50:12.774Z,545
2017-06-24T15:51:28.594Z,525
2017-06-24T15:52:45.641Z,500
2017-06-24T15:54:15.245Z,480
2017-06-24T15:55:30.156Z,490
2017-06-24T15:56:46.525Z,470
2017-06-24T15:58:03.552Z,395
2017-06-24T15:59:19.398Z,390
2017-06-24T16:00:34.379Z,425
2017-06-24T16:01:50.390Z,420
2017-06-24T16:03:06.280Z,385
2017-06-24T16:04:23.099Z,380
2017-06-24T16:05:40.580Z,370
2017-06-24T16:06:56.397Z,440
2017-06-24T16:08:13.365Z,530
2017-06-24T16:09:30.063Z,440
2017-06-24T16:10:46.060Z,445
2017-06-24T16:12:02.780Z,440
2017-06-24T16:13:19.176Z,405
2017-06-24T16:14:34.846Z,395
2017-06-24T16:15:50.324Z,380
2017-06-24T16:17:04.440Z,385
2017-06-24T16:18:20.142Z,345
2017-06-24T16:19:35.724Z,300
2017-06-24T16:20:49.897Z,275
2017-06-24T16:22:05.623Z,280
2017-06-24T16:23:19.989Z,305
2017-06-24T16:24:35.465Z,385
2017-06-24T16:25:51.123Z,430
2017-06-24T16:27:06.803Z,485
2017-06-24T16:28:24.585Z,495
2017-06-24T16:29:40.872Z,500
2017-06-24T16:30:57.372Z,470
2017-06-24T16:32:12.814Z,425
2017-06-24T16:33:28.254Z,375
2017-06-24T16:34:42.415Z,365
2017-06-24T16:35:57.831Z,360
2017-06-24T16:37:13.450Z,355
2017-06-24T16:38:29.173Z,370
2017-06-24T16:39:44.597Z,360
2017-06-24T16:41:00.042Z,385
2017-06-24T16:42:15.511Z,400
2017-06-24T16:43:31.262Z,440
2017-06-24T16:44:46.609Z,430
2017-06-24T16:46:32.972Z,410
2017-06-24T16:47:48.411Z,430
2017-06-24T16:49:04.090Z,420
2017-06-24T16:50:17.156Z,415
2017-06-24T16:51:32.629Z,405
2017-06-24T16:52:48.244Z,415
2017-06-24T16:54:03.920Z,445
2017-06-24T16:55:19.343Z,400
2017-06-24T16:56:34.821Z,390
2017-06-24T16:57:50.198Z,390
2017-06-24T16:59:05.760Z,360
2017-06-24T17:00:21.318Z,330
2017-06-24T17:01:36.711Z,305
2017-06-24T17:02:52.105Z,270
2017-06-24T17:04:08.124Z,245
2017-06-24T17:05:23.600Z,230
2017-06-24T17:06:38.699Z,220
2017-06-24T17:07:52.870Z,205
2017-06-24T17:09:08.596Z,205
2017-06-24T17:10:24.024Z,205
2017-06-24T17:11:38.220Z,195
2017-06-24T17:12:53.815Z,185
2017-06-24T17:14:23.077Z,195
2017-06-24T17:15:38.685Z,215
2017-06-24T17:16:54.363Z,220
2017-06-24T17:18:09.797Z,220
2017-06-24T17:19:25.215Z,210
2017-06-24T17:20:40.620Z,210
2017-06-24T17:21:56.108Z,225
2017-06-24T17:23:11.594Z,215
2017-06-24T17:24:27.322Z,195
2017-06-24T17:25:42.741Z,180
2017-06-24T17:26:58.279Z,175
2017-06-24T17:28:13.702Z,180
2017-06-24T17:29:28.990Z,185
2017-06-24T17:30:44.419Z,195
2017-06-24T17:31:59.932Z,200
2017-06-24T17:33:15.356Z,210
2017-06-24T17:34:31.093Z,215
2017-06-24T17:35:46.574Z,215
2017-06-24T17:37:02.154Z,215
2017-06-24T17:38:17.764Z,210
2017-06-24T17:39:33.476Z,210
2017-06-24T17:40:48.575Z,210
2017-06-24T17:42:03.952Z,210
2017-06-24T17:43:19.410Z,205
2017-06-24T17:44:33.657Z,195
2017-06-24T17:45:49.090Z,190
2017-06-24T17:47:04.505Z,180
2017-06-24T17:48:19.957Z,180
2017-06-24T17:49:35.714Z,185
2017-06-24T17:50:51.528Z,180
2017-06-24T17:52:05.679Z,170
2017-06-24T17:53:21.125Z,160
2017-06-24T17:54:35.372Z,155
2017-06-24T17:55:50.849Z,150
2017-06-24T17:57:06.736Z,150
2017-06-24T17:58:28.442Z,145
2017-06-24T17:59:51.865Z,150
2017-06-24T18:01:14.035Z,145
2017-06-24T18:02:35.751Z,140
2017-06-24T18:03:57.703Z,130
2017-06-24T18:05:21.196Z,125
2017-06-24T18:06:42.785Z,120
2017-06-24T18:08:04.991Z,110
2017-06-24T18:09:26.648Z,105
2017-06-24T18:10:50.350Z,95
2017-06-24T18:12:09.720Z,90
2017-06-24T18:13:25.222Z,95
2017-06-24T18:14:40.876Z,85
2017-06-24T18:15:56.536Z,80
2017-06-24T18:17:11.991Z,80
2017-06-24T18:18:27.553Z,80
2017-06-24T18:19:43.043Z,75
2017-06-24T18:20:58.705Z,70
2017-06-24T18:22:14.162Z,65
2017-06-24T18:23:29.644Z,60
2017-06-24T18:24:45.142Z,65
2017-06-24T18:26:00.854Z,65
2017-06-24T18:27:16.301Z,70
2017-06-24T18:28:31.727Z,70
2017-06-24T18:29:47.131Z,70
2017-06-24T18:31:02.999Z,65
2017-06-24T18:32:18.414Z,60
2017-06-24T18:33:32.779Z,60
2017-06-24T18:34:48.278Z,60
2017-06-24T18:36:04.061Z,60
2017-06-24T18:37:19.699Z,50
2017-06-24T18:38:35.170Z,50
2017-06-24T18:39:50.633Z,45
2017-06-24T18:41:06.344Z,45
2017-06-24T18:42:21.987Z,45
2017-06-24T18:43:37.471Z,50
2017-06-24T18:44:52.998Z,55
2017-06-24T18:46:08.417Z,55
2017-06-24T18:47:23.893Z,55
2017-06-24T18:48:39.631Z,55
2017-06-24T18:49:55.252Z,60
2017-06-24T18:51:10.696Z,60
2017-06-24T18:52:26.146Z,60
2017-06-24T18:53:41.598Z,60
2017-06-24T18:54:57.273Z,60
2017-06-24T18:56:11.334Z,60
2017-06-24T18:57:27.035Z,60
2017-06-24T18:58:42.521Z,55
2017-06-24T18:59:57.782Z,55
2017-06-24T19:01:11.982Z,50
2017-06-24T19:02:27.569Z,50
2017-06-24T19:03:43.069Z,45
2017-06-24T19:04:58.935Z,45
2017-06-24T19:06:14.433Z,40
2017-06-24T19:07:29.887Z,40
2017-06-24T19:08:45.305Z,35
2017-06-24T19:10:00.980Z,30
2017-06-24T19:11:16.420Z,30
2017-06-24T19:12:45.451Z,30
2017-06-24T19:14:00.872Z,30
2017-06-24T19:15:16.714Z,25
2017-06-24T19:16:32.158Z,25
2017-06-24T19:17:47.622Z,25
2017-06-24T19:19:03.059Z,25
2017-06-24T19:20:18.776Z,25
2017-06-24T19:21:34.254Z,25
2017-06-24T19:22:50.169Z,20
2017-06-24T19:24:04.215Z,20
2017-06-24T19:25:20.094Z,20
2017-06-24T19:26:35.542Z,15
2017-06-24T19:27:51.203Z,15
2017-06-24T19:29:06.686Z,15
2017-06-24T19:30:21.120Z,15
2017-06-24T19:31:36.576Z,15
2017-06-24T19:32:52.013Z,10
2017-06-24T19:34:07.456Z,10
2017-06-24T19:35:23.133Z,10
2017-06-24T19:36:38.575Z,10
2017-06-24T19:37:54.450Z,10
2017-06-24T19:39:11.290Z,5
2017-06-24T19:40:28.223Z,5
2017-06-24T19:41:44.121Z,5
2017-06-24T19:43:01.045Z,5
2017-06-24T19:44:17.742Z,5
2017-06-24T19:45:34.502Z,5
2017-06-24T19:46:51.102Z,5
2017-06-24T19:48:05.971Z,0
2017-06-24T19:49:22.657Z,0
2017-06-24T19:50:39.705Z,0
2017-06-24T19:51:56.227Z,0
2017-06-24T19:53:25.684Z,0
2017-06-24T19:54:41.945Z,0
2017-06-24T19:55:58.090Z,0
2017-06-24T19:57:15.124Z,0
2017-06-24T19:58:32.060Z,0
2017-06-24T19:59:48.222Z,0
2017-06-24T20:01:05.049Z,0
2017-06-24T20:02:21.252Z,0
2017-06-24T20:03:37.160Z,0
2017-06-24T20:04:53.052Z,0
2017-06-24T20:06:09.809Z,0
2017-06-24T20:07:26.048Z,0
2017-06-24T20:08:42.286Z,0
2017-06-24T20:09:59.142Z,0
2017-06-24T20:11:15.936Z,0
2017-06-24T20:12:32.451Z,0
2017-06-24T20:13:48.686Z,0
2017-06-24T20:15:05.016Z,0
2017-06-24T20:16:21.269Z,0
2017-06-24T20:17:37.556Z,0
2017-06-24T20:18:53.591Z,0
2017-06-24T20:20:10.188Z,0
2017-06-24T20:21:26.678Z,0
2017-06-24T20:22:42.701Z,0
2017-06-24T20:23:58.676Z,0
2017-06-24T20:25:14.430Z,0
2017-06-24T20:26:30.879Z,0
2017-06-24T20:27:47.176Z,0
2017-06-24T20:29:02.673Z,0
2017-06-24T20:30:18.153Z,0
2017-06-24T20:31:33.912Z,0
2017-06-24T20:32:46.571Z,0
2017-06-24T20:34:02.150Z,0
2017-06-24T20:35:17.569Z,0
2017-06-24T20:36:33.316Z,0
2017-06-24T20:37:48.773Z,0
2017-06-24T20:39:04.194Z,0
2017-06-24T20:40:19.811Z,0
2017-06-24T20:41:35.712Z,0
2017-06-24T20:42:51.153Z,0
2017-06-24T20:44:06.520Z,0
2017-06-24T20:45:22.133Z,0
2017-06-24T20:46:37.936Z,0
2017-06-24T20:47:53.617Z,0
2017-06-24T20:49:09.110Z,0
2017-06-24T20:50:24.487Z,0
2017-06-24T20:51:40.463Z,0
2017-06-24T20:52:55.890Z,0
2017-06-24T20:54:11.542Z,0
2017-06-24T20:55:27.194Z,0
2017-06-24T20:56:42.887Z,0
2017-06-24T20:57:56.610Z,0
2017-06-24T20:59:12.096Z,0
2017-06-24T21:00:27.575Z,0
2017-06-24T21:01:43.211Z,0
2017-06-24T21:02:58.635Z,0
2017-06-24T21:04:14.192Z,0
2017-06-24T21:05:29.586Z,0
2017-06-24T21:06:45.408Z,0
2017-06-24T21:08:00.791Z,0
2017-06-24T21:09:16.216Z,0
2017-06-24T21:10:31.679Z,0
2017-06-24T21:11:47.410Z,0
2017-06-24T21:13:02.838Z,0
2017-06-24T21:14:18.424Z,0
2017-06-24T21:15:34.111Z,0
2017-06-24T21:16:49.833Z,0
2017-06-24T21:18:05.283Z,0
2017-06-24T21:19:51.739Z,0
2017-06-24T21:21:07.158Z,0
2017-06-24T21:22:22.829Z,0
2017-06-24T21:23:38.280Z,0
2017-06-24T21:25:05.961Z,0
2017-06-24T21:26:21.373Z,0
2017-06-24T21:27:37.096Z,0
2017-06-24T21:28:52.718Z,0
2017-06-24T21:30:08.152Z,0
2017-06-24T21:31:23.188Z,0
2017-06-24T21:32:39.275Z,0
2017-06-24T21:33:54.690Z,0
2017-06-24T21:35:10.127Z,0
2017-06-24T21:36:25.939Z,0
2017-06-24T21:37:41.599Z,0
2017-06-24T21:38:57.022Z,0
2017-06-24T21:40:12.725Z,0
2017-06-24T21:41:28.252Z,0
2017-06-24T21:42:44.149Z,0
2017-06-24T21:43:59.571Z,0
2017-06-24T21:45:13.577Z,0
2017-06-24T21:46:29.260Z,0
2017-06-24T21:47:44.947Z,0
2017-06-24T21:49:00.414Z,0
2017-06-24T21:50:15.905Z,0
2017-06-24T21:51:31.487Z,0
2017-06-24T21:52:47.237Z,0
2017-06-24T21:54:02.637Z,0
2017-06-24T21:55:18.073Z,0
2017-06-24T21:56:32.227Z,0
2017-06-24T21:57:47.902Z,0
2017-06-24T21:59:03.367Z,0
2017-06-24T22:00:18.798Z,0
2017-06-24T22:01:34.224Z,0
2017-06-24T22:02:49.918Z,0
2017-06-24T22:04:05.537Z,0
2017-06-24T22:05:21.023Z,0
2017-06-24T22:06:36.453Z,0
2017-06-24T22:07:52.321Z,0
2017-06-24T22:09:07.925Z,0
2017-06-24T22:10:21.891Z,0
2017-06-24T22:11:37.321Z,0
2017-06-24T22:12:53.031Z,0
2017-06-24T22:14:08.454Z,0
2017-06-24T22:15:23.883Z,0
2017-06-24T22:16:38.238Z,0
2017-06-24T22:17:53.901Z,0
2017-06-24T22:19:09.503Z,0
2017-06-24T22:20:24.947Z,0
2017-06-24T22:21:40.594Z,0
2017-06-24T22:22:56.276Z,0
2017-06-24T22:24:11.690Z,0
2017-06-24T22:25:27.136Z,0
2017-06-24T22:26:42.596Z,0
2017-06-24T22:27:58.209Z,0
2017-06-24T22:29:13.638Z,0
2017-06-24T22:30:29.041Z,0
2017-06-24T22:31:44.616Z,0
2017-06-24T22:32:58.985Z,0
2017-06-24T22:34:14.421Z,0
2017-06-24T22:35:30.009Z,0
2017-06-24T22:36:45.391Z,0
2017-06-24T22:38:01.032Z,0
2017-06-24T22:39:16.465Z,0
2017-06-24T22:40:31.914Z,0
2017-06-24T22:41:47.494Z,0
2017-06-24T22:43:03.194Z,0
2017-06-24T22:44:18.608Z,0
2017-06-24T22:45:34.031Z,0
2017-06-24T22:46:48.463Z,0
2017-06-24T22:48:04.202Z,0
2017-06-24T22:49:19.653Z,0
2017-06-24T22:50:35.285Z,0
2017-06-24T22:51:49.463Z,0
2017-06-24T22:53:05.151Z,0
2017-06-24T22:54:20.591Z,0
2017-06-24T22:55:36.055Z,0
2017-06-24T22:56:51.440Z,0
2017-06-24T22:58:07.157Z,0
2017-06-24T22:59:22.587Z,0
2017-06-24T23:00:38.038Z,0
2017-06-24T23:01:53.499Z,0
2017-06-24T23:03:09.210Z,0
2017-06-24T23:04:24.693Z,0
2017-06-24T23:05:40.097Z,0
2017-06-24T23:06:54.252Z,0
2017-06-24T23:08:10.120Z,0
2017-06-24T23:09:25.213Z,0
2017-06-24T23:10:40.594Z,0
2017-06-24T23:11:54.717Z,0
2017-06-24T23:13:10.375Z,0
2017-06-24T23:14:24.540Z,0
2017-06-24T23:15:40.030Z,0
2017-06-24T23:16:54.009Z,0
2017-06-24T23:18:08.377Z,0
2017-06-24T23:19:22.511Z,0
2017-06-24T23:20:36.663Z,0
2017-06-24T23:21:50.373Z,0
2017-06-24T23:23:04.803Z,0
2017-06-24T23:24:18.944Z,0
2017-06-24T23:25:34.024Z,0
2017-06-24T23:26:49.427Z,0
2017-06-24T23:28:05.051Z,0
2017-06-24T23:29:20.465Z,0
2017-06-24T23:30:35.877Z,0
2017-06-24T23:31:50.132Z,0
2017-06-24T23:33:04.481Z,0
2017-06-24T23:34:19.889Z,0
2017-06-24T23:35:35.513Z,0
2017-06-24T23:36:50.953Z,0
2017-06-24T23:38:06.597Z,0
2017-06-24T23:39:22.050Z,0
2017-06-24T23:40:37.434Z,0
2017-06-24T23:41:52.842Z,0
2017-06-24T23:43:08.742Z,0
2017-06-24T23:44:23.120Z,0
2017-06-24T23:45:38.725Z,0
2017-06-24T23:46:52.865Z,0
2017-06-24T23:48:08.290Z,0
2017-06-24T23:49:23.882Z,0
2017-06-24T23:50:39.362Z,0
2017-06-24T23:51:54.799Z,0
2017-06-24T23:53:09.875Z,0
2017-06-24T23:54:25.291Z,0
2017-06-24T23:55:40.824Z,0
2017-06-24T23:56:56.246Z,0
2017-06-24T23:58:11.674Z,0
2017-06-24T23:59:27.259Z,0
